createdAt,value
2022-10-17T00:01:06.991Z,4.70
2022-10-17T00:03:35.705Z,5.13
2022-10-17T00:06:08.326Z,5.10
2022-10-17T00:08:37.181Z,4.90
2022-10-17T00:11:06.931Z,4.90
2022-10-17T00:13:36.868Z,4.93
2022-10-17T00:16:05.686Z,5.13
2022-10-17T00:18:33.716Z,5.37
2022-10-17T00:21:01.670Z,4.90
2022-10-17T00:23:30.459Z,5.83
2022-10-17T00:26:02.152Z,5.00
2022-10-17T00:28:30.104Z,5.30
2022-10-17T00:31:00.676Z,5.07
2022-10-17T00:33:30.833Z,5.30
2022-10-17T00:36:06.909Z,5.10
2022-10-17T00:38:36.368Z,5.73
2022-10-17T00:41:05.101Z,5.27
2022-10-17T00:43:50.754Z,5.03
2022-10-17T00:46:20.493Z,5.57
2022-10-17T00:48:55.695Z,5.47
2022-10-17T00:51:29.608Z,5.53
2022-10-17T00:53:57.742Z,5.30
2022-10-17T00:56:25.692Z,5.37
2022-10-17T00:58:53.588Z,5.47
2022-10-17T01:01:22.909Z,5.67
2022-10-17T01:03:51.097Z,5.27
2022-10-17T01:06:19.520Z,5.40
2022-10-17T01:08:47.956Z,5.43
2022-10-17T01:11:30.058Z,5.27
2022-10-17T01:14:06.752Z,5.80
2022-10-17T01:16:45.685Z,4.80
2022-10-17T01:19:45.146Z,5.67
2022-10-17T01:22:21.462Z,6.03
2022-10-17T01:24:59.507Z,5.83
2022-10-17T01:27:49.733Z,5.60
2022-10-17T01:30:51.583Z,5.53
2022-10-17T01:33:29.578Z,5.33
2022-10-17T01:36:05.627Z,6.37
2022-10-17T01:38:38.318Z,5.63
2022-10-17T01:41:11.910Z,5.50
2022-10-17T01:43:43.781Z,5.90
2022-10-17T01:46:19.451Z,5.90
2022-10-17T01:48:50.247Z,5.33
2022-10-17T01:51:23.138Z,5.80
2022-10-17T01:53:55.450Z,5.63
2022-10-17T01:56:26.174Z,5.47
2022-10-17T01:58:58.173Z,5.77
2022-10-17T02:01:29.303Z,5.23
2022-10-17T02:04:00.992Z,5.17
2022-10-17T02:06:28.995Z,5.73
2022-10-17T02:08:57.651Z,6.20
2022-10-17T02:11:28.064Z,5.37
2022-10-17T02:14:09.592Z,5.27
2022-10-17T02:16:44.105Z,6.07
2022-10-17T02:19:36.610Z,5.93
2022-10-17T02:22:16.458Z,5.90
2022-10-17T02:24:50.981Z,5.40
2022-10-17T02:27:27.264Z,5.60
2022-10-17T02:30:01.169Z,5.40
2022-10-17T02:32:40.185Z,5.23
2022-10-17T02:35:14.270Z,5.33
2022-10-17T02:37:45.315Z,5.60
2022-10-17T02:40:16.332Z,5.70
2022-10-17T02:42:46.416Z,5.13
2022-10-17T02:45:16.081Z,5.83
2022-10-17T02:47:52.324Z,5.57
2022-10-17T02:53:49.451Z,5.90
2022-10-17T02:56:56.249Z,5.00
2022-10-17T02:59:30.283Z,5.73
2022-10-17T03:02:00.727Z,6.17
2022-10-17T03:04:32.174Z,5.73
2022-10-17T03:07:01.822Z,5.27
2022-10-17T03:09:35.898Z,5.20
2022-10-17T03:12:05.349Z,5.30
2022-10-17T03:18:09.857Z,5.53
2022-10-17T03:21:02.167Z,5.80
2022-10-17T03:23:36.801Z,5.10
2022-10-17T03:26:07.481Z,5.20
2022-10-17T03:28:37.216Z,5.60
2022-10-17T03:31:22.293Z,6.00
2022-10-17T03:33:52.967Z,5.57
2022-10-17T03:36:21.514Z,5.13
2022-10-17T03:39:05.152Z,5.10
2022-10-17T03:41:33.320Z,5.30
2022-10-17T03:44:01.329Z,5.23
2022-10-17T03:46:29.333Z,5.27
2022-10-17T03:49:01.804Z,5.37
2022-10-17T03:51:29.974Z,5.17
2022-10-17T03:54:05.597Z,5.60
2022-10-17T03:56:36.369Z,5.70
2022-10-17T03:59:07.365Z,5.80
2022-10-17T04:01:38.214Z,5.50
2022-10-17T04:04:06.537Z,5.30
2022-10-17T04:06:36.889Z,5.13
2022-10-17T04:09:07.717Z,6.23
2022-10-17T04:11:48.367Z,5.23
2022-10-17T04:14:16.264Z,5.70
2022-10-17T04:16:44.338Z,5.03
2022-10-17T04:19:17.144Z,6.00
2022-10-17T04:21:47.600Z,5.17
2022-10-17T04:24:17.819Z,5.27
2022-10-17T04:26:45.915Z,5.27
2022-10-17T04:29:16.377Z,5.20
2022-10-17T04:31:46.599Z,5.20
2022-10-17T04:34:39.406Z,5.83
2022-10-17T04:37:07.516Z,5.30
2022-10-17T04:39:37.941Z,5.27
2022-10-17T04:42:06.576Z,5.77
2022-10-17T04:44:35.664Z,5.40
2022-10-17T04:47:03.572Z,5.33
2022-10-17T04:49:31.811Z,5.40
2022-10-17T04:52:07.788Z,5.27
2022-10-17T04:54:47.459Z,5.40
2022-10-17T04:57:15.684Z,4.93
2022-10-17T04:59:51.218Z,5.53
2022-10-17T05:02:24.516Z,4.87
2022-10-17T05:04:53.457Z,5.33
2022-10-17T05:07:22.163Z,5.40
2022-10-17T05:10:15.245Z,5.43
2022-10-17T05:12:50.269Z,5.03
2022-10-17T05:15:23.634Z,6.10
2022-10-17T05:17:56.248Z,4.67
2022-10-17T05:20:32.589Z,5.23
2022-10-17T05:23:02.359Z,5.30
2022-10-17T05:25:37.311Z,5.97
2022-10-17T05:28:05.315Z,5.60
2022-10-17T05:30:36.667Z,5.30
2022-10-17T05:33:06.300Z,4.90
2022-10-17T05:35:35.059Z,5.20
2022-10-17T05:38:06.263Z,4.70
2022-10-17T05:40:39.667Z,5.70
2022-10-17T05:43:07.593Z,5.23
2022-10-17T05:45:37.065Z,5.30
2022-10-17T05:51:21.132Z,4.93
2022-10-17T05:54:40.004Z,5.20
2022-10-17T05:57:09.627Z,4.90
2022-10-17T05:59:37.911Z,5.27
2022-10-17T06:02:19.774Z,5.13
2022-10-17T06:04:49.336Z,5.20
2022-10-17T06:12:04.005Z,5.13
2022-10-17T06:14:40.200Z,5.20
2022-10-17T06:17:13.437Z,5.33
2022-10-17T06:19:50.268Z,5.13
2022-10-17T06:22:29.140Z,4.80
2022-10-17T06:25:13.696Z,6.23
2022-10-17T06:27:44.719Z,4.63
2022-10-17T06:30:15.199Z,5.13
2022-10-17T06:32:43.266Z,5.23
2022-10-17T06:35:11.966Z,5.63
2022-10-17T06:37:42.520Z,5.67
2022-10-17T06:40:12.280Z,5.03
2022-10-17T06:42:41.212Z,5.17
2022-10-17T06:45:25.360Z,5.10
2022-10-17T06:48:09.354Z,5.40
2022-10-17T06:51:09.835Z,5.33
2022-10-17T06:53:47.116Z,4.80
2022-10-17T06:56:44.605Z,4.63
2022-10-17T06:59:29.091Z,5.30
2022-10-17T07:02:07.052Z,5.17
2022-10-17T07:04:37.783Z,5.07
2022-10-17T07:07:06.138Z,4.87
2022-10-17T07:09:50.316Z,5.20
2022-10-17T07:12:19.257Z,5.10
2022-10-17T07:14:47.463Z,5.13
2022-10-17T07:17:17.069Z,5.17
2022-10-17T07:19:46.652Z,4.87
2022-10-17T07:22:14.895Z,4.40
2022-10-17T07:24:47.367Z,4.63
2022-10-17T07:27:21.453Z,5.00
2022-10-17T07:29:53.939Z,4.83
2022-10-17T07:33:16.285Z,4.50
2022-10-17T07:35:48.667Z,5.50
2022-10-17T07:39:41.373Z,4.67
2022-10-17T07:43:43.796Z,4.50
2022-10-17T07:46:38.262Z,4.63
2022-10-17T07:49:08.958Z,4.50
2022-10-17T07:51:37.360Z,5.03
2022-10-17T07:54:06.372Z,4.50
2022-10-17T07:56:34.957Z,4.30
2022-10-17T07:59:05.338Z,4.60
2022-10-17T08:01:36.968Z,4.33
2022-10-17T08:04:05.157Z,3.83
2022-10-17T08:06:34.617Z,4.57
2022-10-17T08:09:09.398Z,6.77
2022-10-17T08:11:37.584Z,8.70
2022-10-17T08:14:05.885Z,5.93
2022-10-17T08:16:33.984Z,4.40
2022-10-17T08:19:02.135Z,4.53
2022-10-17T08:21:30.335Z,4.30
2022-10-17T08:23:59.728Z,4.47
2022-10-17T08:26:27.705Z,4.13
2022-10-17T08:28:55.698Z,3.97
2022-10-17T08:31:23.970Z,4.37
2022-10-17T08:33:52.237Z,4.00
2022-10-17T08:36:32.324Z,4.57
2022-10-17T08:39:02.788Z,4.17
2022-10-17T08:41:47.987Z,4.00
2022-10-17T08:44:31.142Z,4.03
2022-10-17T08:47:02.913Z,4.23
2022-10-17T08:49:41.657Z,4.03
2022-10-17T08:52:19.980Z,3.93
2022-10-17T08:54:50.390Z,4.53
2022-10-17T08:57:19.421Z,4.30
2022-10-17T08:59:52.119Z,4.17
2022-10-17T09:02:36.407Z,3.70
2022-10-17T09:05:26.381Z,4.53
2022-10-17T09:08:03.455Z,3.77
2022-10-17T09:10:41.350Z,4.00
2022-10-17T09:13:44.443Z,4.03
2022-10-17T09:16:31.135Z,3.87
2022-10-17T09:19:08.661Z,3.77
2022-10-17T09:21:44.696Z,3.47
2022-10-17T09:24:23.722Z,4.03
2022-10-17T09:26:55.239Z,4.77
2022-10-17T09:29:27.698Z,3.73
2022-10-17T09:32:03.609Z,3.60
2022-10-17T09:34:33.887Z,4.40
2022-10-17T09:37:03.559Z,3.90
2022-10-17T09:39:33.092Z,3.90
2022-10-17T09:42:03.442Z,4.60
2022-10-17T09:44:34.009Z,6.63
2022-10-17T09:47:19.891Z,6.30
2022-10-17T09:49:49.971Z,4.33
2022-10-17T09:52:20.233Z,4.03
2022-10-17T09:54:51.793Z,4.30
2022-10-17T09:57:23.131Z,4.07
2022-10-17T09:59:58.865Z,4.10
2022-10-17T10:02:29.377Z,4.30
2022-10-17T10:05:04.324Z,4.60
2022-10-17T10:07:35.265Z,3.93
2022-10-17T10:10:05.839Z,4.40
2022-10-17T10:12:37.629Z,4.17
2022-10-17T10:15:33.595Z,4.37
2022-10-17T10:18:01.971Z,4.50
2022-10-17T10:20:33.660Z,4.40
2022-10-17T10:23:24.708Z,4.40
2022-10-17T10:29:31.102Z,4.50
2022-10-17T10:32:10.665Z,4.47
2022-10-17T10:34:51.251Z,4.27
2022-10-17T10:54:51.233Z,4.37
2022-10-17T10:58:24.199Z,4.30
2022-10-17T11:05:49.656Z,5.10
2022-10-17T11:08:56.254Z,4.13
2022-10-17T11:11:50.305Z,4.63
2022-10-17T11:14:24.868Z,4.90
2022-10-17T11:17:07.479Z,5.37
2022-10-17T11:19:40.975Z,5.17
2022-10-17T11:22:18.982Z,4.77
2022-10-17T11:25:18.773Z,4.93
2022-10-17T11:27:52.812Z,4.67
2022-10-17T11:30:38.558Z,4.60
2022-10-17T11:33:07.620Z,4.53
2022-10-17T11:44:33.114Z,5.20
2022-10-17T11:47:09.925Z,4.80
2022-10-17T11:58:07.422Z,4.93
2022-10-17T12:00:48.943Z,5.07
2022-10-17T12:03:32.390Z,4.97
2022-10-17T12:06:08.015Z,5.87
2022-10-17T12:08:45.462Z,4.90
2022-10-17T12:11:23.092Z,4.53
2022-10-17T12:13:56.430Z,4.93
2022-10-17T12:16:51.329Z,4.77
2022-10-17T12:19:36.525Z,4.67
2022-10-17T12:22:08.045Z,5.00
2022-10-17T12:24:40.449Z,5.00
2022-10-17T12:27:33.668Z,4.53
2022-10-17T12:30:02.792Z,5.20
2022-10-17T12:32:46.946Z,5.80
2022-10-17T12:35:23.943Z,5.37
2022-10-17T12:38:16.678Z,4.60
2022-10-17T12:40:53.405Z,5.33
2022-10-17T12:46:56.593Z,5.57
2022-10-17T12:49:49.667Z,4.90
2022-10-17T12:52:29.777Z,5.67
2022-10-17T12:55:12.248Z,5.23
2022-10-17T12:57:51.835Z,5.30
2022-10-17T13:00:24.551Z,5.73
2022-10-17T13:02:56.673Z,6.17
2022-10-17T13:05:30.823Z,6.20
2022-10-17T13:08:03.367Z,6.70
2022-10-17T13:10:34.850Z,6.00
2022-10-17T13:13:10.611Z,6.50
2022-10-17T13:15:41.796Z,6.60
2022-10-17T13:18:22.575Z,5.77
2022-10-17T13:21:15.573Z,6.43
2022-10-17T13:23:45.263Z,5.80
2022-10-17T13:26:20.289Z,5.60
2022-10-17T13:29:02.047Z,6.10
2022-10-17T13:31:37.658Z,5.77
2022-10-17T13:34:44.807Z,5.67
2022-10-17T13:37:16.848Z,5.30
2022-10-17T13:40:00.290Z,5.63
2022-10-17T13:42:40.252Z,5.50
2022-10-17T13:45:19.996Z,5.67
2022-10-17T13:47:48.408Z,5.37
2022-10-17T13:50:43.094Z,5.70
2022-10-17T13:53:21.864Z,5.50
2022-10-17T13:56:34.470Z,5.30
2022-10-17T13:59:15.318Z,4.80
2022-10-17T14:01:43.566Z,5.00
2022-10-17T14:04:19.820Z,5.67
2022-10-17T14:06:51.411Z,5.97
2022-10-17T14:09:24.656Z,4.97
2022-10-17T14:12:03.076Z,3.80
2022-10-17T14:14:46.119Z,3.67
2022-10-17T14:17:25.412Z,3.50
2022-10-17T14:20:14.086Z,3.77
2022-10-17T14:22:47.283Z,3.83
2022-10-17T14:25:30.742Z,3.70
2022-10-17T14:28:08.071Z,3.87
2022-10-17T14:30:55.878Z,3.83
2022-10-17T14:33:27.077Z,3.50
2022-10-17T14:35:57.448Z,4.10
2022-10-17T14:38:26.301Z,4.53
2022-10-17T14:41:09.822Z,3.13
2022-10-17T14:43:53.998Z,3.63
2022-10-17T14:46:22.147Z,3.87
2022-10-17T14:48:55.115Z,4.67
2022-10-17T14:51:23.129Z,7.50
2022-10-17T14:54:06.127Z,5.03
2022-10-17T14:56:41.706Z,4.20
2022-10-17T14:59:13.819Z,4.97
2022-10-17T15:01:46.256Z,4.30
2022-10-17T15:04:14.225Z,4.07
2022-10-17T15:06:43.027Z,4.70
2022-10-17T15:09:11.250Z,4.00
2022-10-17T15:11:39.773Z,4.60
2022-10-17T15:14:08.202Z,4.70
2022-10-17T15:16:39.457Z,4.23
2022-10-17T15:19:10.236Z,4.00
2022-10-17T15:21:41.837Z,4.20
2022-10-17T15:24:12.928Z,4.17
2022-10-17T15:26:41.292Z,4.10
2022-10-17T15:29:11.505Z,4.30
2022-10-17T15:31:41.554Z,4.03
2022-10-17T15:34:09.581Z,4.00
2022-10-17T15:36:41.118Z,4.93
2022-10-17T15:39:10.656Z,5.37
2022-10-17T15:41:38.638Z,9.23
2022-10-17T15:44:06.815Z,6.20
2022-10-17T15:47:05.864Z,5.47
2022-10-17T15:50:30.590Z,5.47
2022-10-17T15:52:58.554Z,5.10
2022-10-17T15:55:26.643Z,5.57
2022-10-17T15:57:54.736Z,5.00
2022-10-17T16:00:25.250Z,4.97
2022-10-17T16:02:55.090Z,4.90
2022-10-17T16:05:25.670Z,4.87
2022-10-17T16:07:57.122Z,4.90
2022-10-17T16:10:26.129Z,5.43
2022-10-17T16:12:54.298Z,4.77
2022-10-17T16:15:24.833Z,5.17
2022-10-17T16:17:55.332Z,5.03
2022-10-17T16:20:24.669Z,5.20
2022-10-17T16:22:59.746Z,4.63
2022-10-17T16:25:30.221Z,4.63
2022-10-17T16:28:00.700Z,4.87
2022-10-17T16:30:30.938Z,4.57
2022-10-17T16:33:00.514Z,6.97
2022-10-17T16:35:33.391Z,9.43
2022-10-17T16:38:04.886Z,10.77
2022-10-17T16:40:32.933Z,9.67
2022-10-17T16:43:01.027Z,5.67
2022-10-17T16:45:29.098Z,5.90
2022-10-17T16:47:57.340Z,7.30
2022-10-17T16:50:26.876Z,6.80
2022-10-17T16:52:54.917Z,6.30
2022-10-17T16:55:22.938Z,6.10
2022-10-17T16:57:50.982Z,5.83
2022-10-17T17:00:19.153Z,5.33
2022-10-17T17:02:49.084Z,5.27
2022-10-17T17:05:17.348Z,5.50
2022-10-17T17:07:47.957Z,6.30
2022-10-17T17:10:16.151Z,5.87
2022-10-17T17:12:44.182Z,6.27
2022-10-17T17:15:13.694Z,6.20
2022-10-17T17:17:51.309Z,7.50
2022-10-17T17:20:20.440Z,5.57
2022-10-17T17:22:50.834Z,5.87
2022-10-17T17:25:19.017Z,5.27
2022-10-17T17:27:47.033Z,5.63
2022-10-17T17:30:15.185Z,5.30
2022-10-17T17:32:43.227Z,5.10
2022-10-17T17:35:11.273Z,4.33
2022-10-17T17:37:39.238Z,5.43
2022-10-17T17:40:11.403Z,5.40
2022-10-17T17:42:39.460Z,10.87
2022-10-17T17:45:08.401Z,6.43
2022-10-17T17:47:36.554Z,7.07
2022-10-17T17:50:05.112Z,7.47
2022-10-17T17:52:33.421Z,8.33
2022-10-17T17:55:01.562Z,7.27
2022-10-17T17:57:31.832Z,5.50
2022-10-17T17:59:59.762Z,5.77
2022-10-17T18:02:28.484Z,6.50
2022-10-17T18:04:56.768Z,6.00
2022-10-17T18:07:25.087Z,5.37
2022-10-17T18:09:53.217Z,6.80
2022-10-17T18:12:21.469Z,5.93
2022-10-17T18:14:50.825Z,5.73
2022-10-17T18:17:18.813Z,6.63
2022-10-17T18:19:46.851Z,6.43
2022-10-17T18:22:15.088Z,6.00
2022-10-17T18:24:43.147Z,5.83
2022-10-17T18:27:13.697Z,5.30
2022-10-17T18:29:41.781Z,5.67
2022-10-17T18:32:11.305Z,4.93
2022-10-17T18:34:39.673Z,4.57
2022-10-17T18:37:07.934Z,5.53
2022-10-17T18:39:36.251Z,5.50
2022-10-17T18:42:04.434Z,5.20
2022-10-17T18:44:32.482Z,5.17
2022-10-17T18:47:03.868Z,4.90
2022-10-17T18:49:34.278Z,4.70
2022-10-17T18:52:02.361Z,5.13
2022-10-17T18:54:33.373Z,5.10
2022-10-17T18:57:01.985Z,5.00
2022-10-17T18:59:30.306Z,5.40
2022-10-17T19:01:58.664Z,5.33
2022-10-17T19:04:27.119Z,5.60
2022-10-17T19:06:56.502Z,5.27
2022-10-17T19:09:24.798Z,5.00
2022-10-17T19:11:52.815Z,4.80
2022-10-17T19:14:20.757Z,5.23
2022-10-17T19:16:51.960Z,5.10
2022-10-17T19:19:21.797Z,5.50
2022-10-17T19:21:50.485Z,5.27
2022-10-17T19:24:22.368Z,5.20
2022-10-17T19:26:53.609Z,5.13
2022-10-17T19:29:23.116Z,5.30
2022-10-17T19:31:51.363Z,6.07
2022-10-17T19:34:19.815Z,5.77
2022-10-17T19:36:47.690Z,5.00
2022-10-17T19:39:18.036Z,4.57
2022-10-17T19:41:49.257Z,4.83
2022-10-17T19:44:17.694Z,5.20
2022-10-17T19:46:47.131Z,4.93
2022-10-17T19:49:15.721Z,5.10
2022-10-17T19:51:44.076Z,5.17
2022-10-17T19:54:12.834Z,4.80
2022-10-17T19:56:43.428Z,4.60
2022-10-17T19:59:14.734Z,4.30
2022-10-17T20:01:42.955Z,3.90
2022-10-17T20:04:12.396Z,4.07
2022-10-17T20:06:41.091Z,4.00
2022-10-17T20:09:12.507Z,4.53
2022-10-17T20:11:43.916Z,3.87
2022-10-17T20:14:13.464Z,4.00
2022-10-17T20:16:41.518Z,4.00
2022-10-17T20:19:12.003Z,4.03
2022-10-17T20:21:40.731Z,4.40
2022-10-17T20:24:12.264Z,4.23
2022-10-17T20:26:40.871Z,3.93
2022-10-17T20:29:12.014Z,3.70
2022-10-17T20:31:43.407Z,3.90
2022-10-17T20:34:13.741Z,4.10
2022-10-17T20:36:42.358Z,4.10
2022-10-17T20:39:12.329Z,4.00
2022-10-17T20:41:40.707Z,4.20
2022-10-17T20:44:08.925Z,3.80
2022-10-17T20:46:39.753Z,3.77
2022-10-17T20:49:15.697Z,4.47
2022-10-17T20:51:43.946Z,4.10
2022-10-17T20:54:11.847Z,4.77
2022-10-17T20:56:39.920Z,4.50
2022-10-17T20:59:12.166Z,4.60
2022-10-17T21:01:40.192Z,4.17
2022-10-17T21:04:40.561Z,4.70
2022-10-17T21:06:57.495Z,4.10
2022-10-17T21:09:25.576Z,4.23
2022-10-17T21:11:55.529Z,4.53
2022-10-17T21:14:24.244Z,3.67
2022-10-17T21:16:52.180Z,4.57
2022-10-17T21:19:21.609Z,4.50
2022-10-17T21:21:49.415Z,4.53
2022-10-17T21:24:20.468Z,5.20
2022-10-17T21:26:55.078Z,5.17
2022-10-17T21:29:24.366Z,4.57
2022-10-17T21:31:52.745Z,4.10
2022-10-17T21:34:23.844Z,3.97
2022-10-17T21:36:52.398Z,4.40
2022-10-17T21:39:24.167Z,3.73
2022-10-17T21:41:52.801Z,3.83
2022-10-17T21:44:22.700Z,3.80
2022-10-17T21:46:50.655Z,4.07
2022-10-17T21:49:21.189Z,3.33
2022-10-17T21:51:49.932Z,4.17
2022-10-17T21:54:19.506Z,3.50
2022-10-17T21:56:48.689Z,3.60
2022-10-17T21:59:16.784Z,3.50
2022-10-17T22:01:46.534Z,3.37
2022-10-17T22:04:15.939Z,3.23
2022-10-17T22:06:45.972Z,3.20
2022-10-17T22:09:16.424Z,3.20
2022-10-17T22:11:47.349Z,3.07
2022-10-17T22:14:19.748Z,2.80
2022-10-17T22:16:49.091Z,2.93
2022-10-17T22:19:20.056Z,2.40
2022-10-17T22:21:48.115Z,2.73
2022-10-17T22:24:18.062Z,2.90
2022-10-17T22:26:46.278Z,2.73
2022-10-17T22:29:15.773Z,2.77
2022-10-17T22:31:43.881Z,2.83
2022-10-17T22:34:13.675Z,2.97
2022-10-17T22:36:41.761Z,2.53
2022-10-17T22:39:10.451Z,2.83
2022-10-17T22:41:38.276Z,2.87
2022-10-17T22:44:06.424Z,3.10
2022-10-17T22:46:36.081Z,3.03
2022-10-17T22:49:04.039Z,2.90
2022-10-17T22:51:32.167Z,3.20
2022-10-17T22:54:02.366Z,2.97
2022-10-17T22:56:30.257Z,3.53
2022-10-17T22:58:58.108Z,3.30
2022-10-17T23:01:26.887Z,3.37
2022-10-17T23:03:56.306Z,3.07
2022-10-17T23:06:24.434Z,3.60
2022-10-17T23:08:52.428Z,3.27
2022-10-17T23:11:20.830Z,3.23
2022-10-17T23:13:48.850Z,3.27
2022-10-17T23:16:17.072Z,3.40
2022-10-17T23:18:44.903Z,3.07
2022-10-17T23:21:14.363Z,2.77
2022-10-17T23:23:42.332Z,3.10
2022-10-17T23:26:13.181Z,3.00
2022-10-17T23:28:42.166Z,3.17
2022-10-17T23:31:12.140Z,2.97
2022-10-17T23:33:41.332Z,3.03
2022-10-17T23:36:10.732Z,2.70
2022-10-17T23:38:40.337Z,3.10
2022-10-17T23:41:08.664Z,3.47
2022-10-17T23:43:36.980Z,3.40
2022-10-17T23:46:06.285Z,3.47
2022-10-17T23:48:34.766Z,3.37
2022-10-17T23:51:03.010Z,3.10
2022-10-17T23:53:31.314Z,3.70
2022-10-17T23:56:00.798Z,3.20
2022-10-17T23:58:29.101Z,3.33
